sensor_id;sensor_type;location;lat;lon;timestamp;pressure;altitude;pressure_sealevel;temperature;humidity
80988;BME280;70452;39.386;-3.210;2023-07-16T00:02:32;94162.13;;;25.70;27.14
80988;BME280;70452;39.386;-3.210;2023-07-16T00:05:04;94160.50;;;25.69;27.40
80988;BME280;70452;39.386;-3.210;2023-07-16T00:07:36;94149.75;;;25.71;27.27
80988;BME280;70452;39.386;-3.210;2023-07-16T00:10:10;94152.94;;;25.70;27.45
80988;BME280;70452;39.386;-3.210;2023-07-16T00:12:42;94150.09;;;25.66;27.56
80988;BME280;70452;39.386;-3.210;2023-07-16T00:15:19;94148.09;;;25.67;27.34
80988;BME280;70452;39.386;-3.210;2023-07-16T00:18:03;94153.06;;;25.47;27.19
80988;BME280;70452;39.386;-3.210;2023-07-16T00:20:48;94145.66;;;25.27;28.15
80988;BME280;70452;39.386;-3.210;2023-07-16T00:23:33;94140.50;;;25.30;27.79
80988;BME280;70452;39.386;-3.210;2023-07-16T00:26:10;94135.72;;;25.30;27.90
80988;BME280;70452;39.386;-3.210;2023-07-16T00:28:44;94131.00;;;25.34;27.44
80988;BME280;70452;39.386;-3.210;2023-07-16T00:31:23;94138.13;;;25.32;27.42
80988;BME280;70452;39.386;-3.210;2023-07-16T00:34:03;94138.09;;;25.28;27.97
80988;BME280;70452;39.386;-3.210;2023-07-16T00:36:40;94126.88;;;25.24;27.86
80988;BME280;70452;39.386;-3.210;2023-07-16T00:39:17;94130.91;;;25.27;28.28
80988;BME280;70452;39.386;-3.210;2023-07-16T00:41:59;94127.25;;;25.23;27.94
80988;BME280;70452;39.386;-3.210;2023-07-16T00:44:51;94128.00;;;25.20;28.22
80988;BME280;70452;39.386;-3.210;2023-07-16T00:47:26;94126.63;;;25.06;28.19
80988;BME280;70452;39.386;-3.210;2023-07-16T00:50:04;94134.19;;;25.06;28.67
80988;BME280;70452;39.386;-3.210;2023-07-16T00:52:48;94135.31;;;25.01;28.33
80988;BME280;70452;39.386;-3.210;2023-07-16T00:55:15;94133.25;;;24.95;28.80
80988;BME280;70452;39.386;-3.210;2023-07-16T00:58:01;94129.22;;;24.92;28.35
80988;BME280;70452;39.386;-3.210;2023-07-16T01:00:43;94130.47;;;24.95;28.88
80988;BME280;70452;39.386;-3.210;2023-07-16T01:03:17;94128.53;;;24.99;28.37
80988;BME280;70452;39.386;-3.210;2023-07-16T01:08:56;94121.56;;;24.85;28.50
80988;BME280;70452;39.386;-3.210;2023-07-16T01:11:40;94121.78;;;24.73;28.53
80988;BME280;70452;39.386;-3.210;2023-07-16T01:14:16;94118.53;;;24.67;28.91
80988;BME280;70452;39.386;-3.210;2023-07-16T01:16:48;94124.66;;;24.53;29.01
80988;BME280;70452;39.386;-3.210;2023-07-16T01:19:36;94117.13;;;24.54;29.07
80988;BME280;70452;39.386;-3.210;2023-07-16T01:22:25;94112.91;;;24.41;29.14
80988;BME280;70452;39.386;-3.210;2023-07-16T01:28:09;94118.78;;;24.36;29.53
80988;BME280;70452;39.386;-3.210;2023-07-16T01:30:56;94112.81;;;24.33;29.24
80988;BME280;70452;39.386;-3.210;2023-07-16T01:33:43;94109.31;;;24.40;29.45
80988;BME280;70452;39.386;-3.210;2023-07-16T01:36:17;94109.53;;;24.28;29.48
80988;BME280;70452;39.386;-3.210;2023-07-16T01:39:01;94114.09;;;24.17;29.57
80988;BME280;70452;39.386;-3.210;2023-07-16T01:41:48;94105.81;;;24.20;29.70
80988;BME280;70452;39.386;-3.210;2023-07-16T01:44:26;94109.78;;;24.19;29.75
80988;BME280;70452;39.386;-3.210;2023-07-16T01:47:28;94112.84;;;24.10;30.15
80988;BME280;70452;39.386;-3.210;2023-07-16T01:50:09;94114.66;;;24.03;30.21
80988;BME280;70452;39.386;-3.210;2023-07-16T01:52:38;94107.94;;;24.04;30.29
80988;BME280;70452;39.386;-3.210;2023-07-16T01:55:19;94114.13;;;23.93;30.16
80988;BME280;70452;39.386;-3.210;2023-07-16T01:57:53;94109.84;;;24.00;30.44
80988;BME280;70452;39.386;-3.210;2023-07-16T02:00:42;94107.38;;;23.94;30.31
80988;BME280;70452;39.386;-3.210;2023-07-16T02:03:34;94097.22;;;23.83;30.43
80988;BME280;70452;39.386;-3.210;2023-07-16T02:06:13;94110.69;;;23.81;30.52
80988;BME280;70452;39.386;-3.210;2023-07-16T02:08:45;94097.75;;;23.88;30.34
80988;BME280;70452;39.386;-3.210;2023-07-16T02:11:22;94099.34;;;23.89;30.46
80988;BME280;70452;39.386;-3.210;2023-07-16T02:13:59;94089.56;;;23.76;30.55
80988;BME280;70452;39.386;-3.210;2023-07-16T02:16:39;94094.53;;;23.67;30.95
80988;BME280;70452;39.386;-3.210;2023-07-16T02:19:17;94088.25;;;23.70;30.77
80988;BME280;70452;39.386;-3.210;2023-07-16T02:21:55;94087.00;;;23.67;30.96
80988;BME280;70452;39.386;-3.210;2023-07-16T02:27:18;94095.59;;;23.39;31.14
80988;BME280;70452;39.386;-3.210;2023-07-16T02:29:56;94084.25;;;23.48;31.29
80988;BME280;70452;39.386;-3.210;2023-07-16T02:32:27;94087.63;;;23.37;31.08
80988;BME280;70452;39.386;-3.210;2023-07-16T02:35:03;94085.66;;;23.38;31.15
80988;BME280;70452;39.386;-3.210;2023-07-16T02:37:50;94086.91;;;23.40;31.33
80988;BME280;70452;39.386;-3.210;2023-07-16T02:40:25;94083.38;;;23.24;31.12
80988;BME280;70452;39.386;-3.210;2023-07-16T02:42:59;94085.31;;;23.20;31.54
80988;BME280;70452;39.386;-3.210;2023-07-16T02:45:53;94081.88;;;23.27;31.70
80988;BME280;70452;39.386;-3.210;2023-07-16T02:48:35;94082.31;;;23.29;31.43
80988;BME280;70452;39.386;-3.210;2023-07-16T02:51:17;94087.56;;;23.34;31.63
80988;BME280;70452;39.386;-3.210;2023-07-16T02:54:08;94082.97;;;23.22;31.53
80988;BME280;70452;39.386;-3.210;2023-07-16T02:56:37;94083.09;;;22.90;32.09
80988;BME280;70452;39.386;-3.210;2023-07-16T02:59:14;94080.16;;;23.02;32.21
80988;BME280;70452;39.386;-3.210;2023-07-16T03:01:50;94078.63;;;22.85;32.32
80988;BME280;70452;39.386;-3.210;2023-07-16T03:04:45;94081.47;;;22.89;32.48
80988;BME280;70452;39.386;-3.210;2023-07-16T03:07:31;94078.69;;;22.89;32.55
80988;BME280;70452;39.386;-3.210;2023-07-16T03:10:21;94074.44;;;22.76;32.52
80988;BME280;70452;39.386;-3.210;2023-07-16T03:12:52;94080.00;;;22.76;32.63
80988;BME280;70452;39.386;-3.210;2023-07-16T03:15:32;94077.78;;;22.65;33.11
80988;BME280;70452;39.386;-3.210;2023-07-16T03:18:13;94073.34;;;22.61;33.15
80988;BME280;70452;39.386;-3.210;2023-07-16T03:20:56;94074.94;;;22.62;33.34
80988;BME280;70452;39.386;-3.210;2023-07-16T03:23:30;94080.56;;;22.65;33.31
80988;BME280;70452;39.386;-3.210;2023-07-16T03:26:11;94083.34;;;22.65;33.25
80988;BME280;70452;39.386;-3.210;2023-07-16T03:28:40;94072.72;;;22.52;33.22
80988;BME280;70452;39.386;-3.210;2023-07-16T03:31:17;94080.19;;;22.47;33.57
80988;BME280;70452;39.386;-3.210;2023-07-16T03:37:03;94076.13;;;22.45;33.79
80988;BME280;70452;39.386;-3.210;2023-07-16T03:39:32;94075.41;;;22.48;33.98
80988;BME280;70452;39.386;-3.210;2023-07-16T03:42:13;94081.03;;;22.52;33.91
80988;BME280;70452;39.386;-3.210;2023-07-16T03:47:48;94082.75;;;22.56;33.92
80988;BME280;70452;39.386;-3.210;2023-07-16T03:50:25;94075.41;;;22.48;34.28
80988;BME280;70452;39.386;-3.210;2023-07-16T03:52:57;94075.78;;;22.46;34.36
80988;BME280;70452;39.386;-3.210;2023-07-16T03:55:29;94085.00;;;22.51;34.32
80988;BME280;70452;39.386;-3.210;2023-07-16T03:58:06;94082.09;;;22.27;34.91
80988;BME280;70452;39.386;-3.210;2023-07-16T04:00:49;94086.19;;;22.34;34.60
80988;BME280;70452;39.386;-3.210;2023-07-16T04:03:41;94080.72;;;22.37;34.59
80988;BME280;70452;39.386;-3.210;2023-07-16T04:06:19;94091.75;;;22.34;34.60
80988;BME280;70452;39.386;-3.210;2023-07-16T04:09:15;94089.84;;;22.38;34.83
80988;BME280;70452;39.386;-3.210;2023-07-16T04:11:59;94089.59;;;22.27;34.80
80988;BME280;70452;39.386;-3.210;2023-07-16T04:14:31;94092.56;;;22.02;35.35
80988;BME280;70452;39.386;-3.210;2023-07-16T04:17:06;94098.19;;;21.90;35.42
80988;BME280;70452;39.386;-3.210;2023-07-16T04:19:58;94093.09;;;21.92;35.45
80988;BME280;70452;39.386;-3.210;2023-07-16T04:22:36;94090.41;;;21.80;35.91
80988;BME280;70452;39.386;-3.210;2023-07-16T04:25:11;94094.00;;;21.80;36.14
80988;BME280;70452;39.386;-3.210;2023-07-16T04:27:50;94095.75;;;21.72;36.21
80988;BME280;70452;39.386;-3.210;2023-07-16T04:30:25;94100.78;;;21.67;36.13
80988;BME280;70452;39.386;-3.210;2023-07-16T04:33:02;94097.91;;;21.63;36.22
80988;BME280;70452;39.386;-3.210;2023-07-16T04:35:51;94102.94;;;21.73;35.87
80988;BME280;70452;39.386;-3.210;2023-07-16T04:38:26;94109.97;;;21.55;36.33
80988;BME280;70452;39.386;-3.210;2023-07-16T04:41:05;94116.31;;;21.56;36.46
80988;BME280;70452;39.386;-3.210;2023-07-16T04:43:37;94117.66;;;21.62;36.33
80988;BME280;70452;39.386;-3.210;2023-07-16T04:46:10;94116.25;;;21.68;36.20
80988;BME280;70452;39.386;-3.210;2023-07-16T04:48:48;94121.91;;;21.71;36.18
80988;BME280;70452;39.386;-3.210;2023-07-16T04:51:25;94124.72;;;21.59;36.24
80988;BME280;70452;39.386;-3.210;2023-07-16T04:56:50;94124.72;;;21.59;36.40
80988;BME280;70452;39.386;-3.210;2023-07-16T04:59:35;94123.38;;;21.53;36.50
80988;BME280;70452;39.386;-3.210;2023-07-16T05:02:11;94128.03;;;21.36;36.85
80988;BME280;70452;39.386;-3.210;2023-07-16T05:04:50;94136.81;;;21.39;36.86
80988;BME280;70452;39.386;-3.210;2023-07-16T05:07:22;94135.41;;;21.45;36.93
80988;BME280;70452;39.386;-3.210;2023-07-16T05:10:06;94131.25;;;21.51;36.85
80988;BME280;70452;39.386;-3.210;2023-07-16T05:12:43;94131.38;;;21.86;36.17
80988;BME280;70452;39.386;-3.210;2023-07-16T05:15:18;94131.47;;;22.54;34.63
80988;BME280;70452;39.386;-3.210;2023-07-16T05:17:55;94135.56;;;23.11;33.47
80988;BME280;70452;39.386;-3.210;2023-07-16T05:20:28;94140.38;;;23.34;32.72
80988;BME280;70452;39.386;-3.210;2023-07-16T05:23:00;94156.47;;;23.25;33.18
80988;BME280;70452;39.386;-3.210;2023-07-16T05:28:31;94158.28;;;24.41;31.20
80988;BME280;70452;39.386;-3.210;2023-07-16T05:30:58;94162.81;;;25.03;29.92
80988;BME280;70452;39.386;-3.210;2023-07-16T05:33:35;94169.47;;;24.68;30.69
80988;BME280;70452;39.386;-3.210;2023-07-16T05:36:15;94172.50;;;25.13;29.65
80988;BME280;70452;39.386;-3.210;2023-07-16T05:38:49;94179.25;;;26.06;28.62
80988;BME280;70452;39.386;-3.210;2023-07-16T05:41:26;94178.22;;;26.63;27.48
80988;BME280;70452;39.386;-3.210;2023-07-16T05:44:03;94184.75;;;26.78;26.69
80988;BME280;70452;39.386;-3.210;2023-07-16T05:46:33;94184.19;;;27.09;26.76
80988;BME280;70452;39.386;-3.210;2023-07-16T05:49:07;94187.25;;;27.56;25.86
80988;BME280;70452;39.386;-3.210;2023-07-16T05:51:44;94187.28;;;27.63;25.90
80988;BME280;70452;39.386;-3.210;2023-07-16T05:54:43;94190.25;;;28.03;25.57
80988;BME280;70452;39.386;-3.210;2023-07-16T05:57:17;94192.69;;;28.30;24.91
80988;BME280;70452;39.386;-3.210;2023-07-16T05:59:58;94192.38;;;28.64;24.33
80988;BME280;70452;39.386;-3.210;2023-07-16T06:02:32;94196.41;;;28.73;24.54
80988;BME280;70452;39.386;-3.210;2023-07-16T06:05:07;94202.09;;;27.71;25.78
80988;BME280;70452;39.386;-3.210;2023-07-16T06:07:40;94205.66;;;27.64;25.39
80988;BME280;70452;39.386;-3.210;2023-07-16T06:10:18;94202.56;;;27.80;24.75
80988;BME280;70452;39.386;-3.210;2023-07-16T06:12:56;94199.81;;;25.57;27.80
80988;BME280;70452;39.386;-3.210;2023-07-16T06:15:41;94210.50;;;26.56;26.45
80988;BME280;70452;39.386;-3.210;2023-07-16T06:18:18;94217.53;;;25.72;26.81
80988;BME280;70452;39.386;-3.210;2023-07-16T06:20:52;94216.72;;;25.71;27.08
80988;BME280;70452;39.386;-3.210;2023-07-16T06:23:30;94219.16;;;25.16;27.96
80988;BME280;70452;39.386;-3.210;2023-07-16T06:25:59;94217.88;;;25.36;27.95
80988;BME280;70452;39.386;-3.210;2023-07-16T06:28:40;94217.81;;;26.31;26.62
80988;BME280;70452;39.386;-3.210;2023-07-16T06:31:17;94217.59;;;26.09;26.71
80988;BME280;70452;39.386;-3.210;2023-07-16T06:33:52;94218.38;;;26.47;26.68
80988;BME280;70452;39.386;-3.210;2023-07-16T06:36:29;94218.41;;;26.51;26.72
80988;BME280;70452;39.386;-3.210;2023-07-16T06:39:09;94218.41;;;26.95;25.92
80988;BME280;70452;39.386;-3.210;2023-07-16T06:42:02;94216.19;;;27.19;25.94
80988;BME280;70452;39.386;-3.210;2023-07-16T06:44:43;94218.50;;;27.76;25.37
80988;BME280;70452;39.386;-3.210;2023-07-16T06:47:16;94225.94;;;28.31;25.02
80988;BME280;70452;39.386;-3.210;2023-07-16T06:49:56;94221.19;;;28.64;24.09
80988;BME280;70452;39.386;-3.210;2023-07-16T06:52:27;94222.88;;;27.66;25.61
80988;BME280;70452;39.386;-3.210;2023-07-16T06:55:00;94225.06;;;28.09;24.99
80988;BME280;70452;39.386;-3.210;2023-07-16T06:57:50;94226.28;;;28.15;24.94
80988;BME280;70452;39.386;-3.210;2023-07-16T07:00:47;94230.72;;;28.31;24.77
80988;BME280;70452;39.386;-3.210;2023-07-16T07:03:33;94228.84;;;29.03;23.63
80988;BME280;70452;39.386;-3.210;2023-07-16T07:08:46;94242.47;;;29.19;23.57
80988;BME280;70452;39.386;-3.210;2023-07-16T07:11:22;94235.97;;;29.80;22.77
80988;BME280;70452;39.386;-3.210;2023-07-16T07:14:08;94233.72;;;30.34;22.17
80988;BME280;70452;39.386;-3.210;2023-07-16T07:16:56;94238.31;;;29.96;22.40
80988;BME280;70452;39.386;-3.210;2023-07-16T07:19:37;94236.78;;;29.73;22.80
80988;BME280;70452;39.386;-3.210;2023-07-16T07:22:48;94244.41;;;29.58;23.17
80988;BME280;70452;39.386;-3.210;2023-07-16T07:25:20;94236.47;;;29.28;23.30
80988;BME280;70452;39.386;-3.210;2023-07-16T07:31:11;94249.63;;;29.60;22.93
80988;BME280;70452;39.386;-3.210;2023-07-16T07:34:02;94245.66;;;29.35;23.16
80988;BME280;70452;39.386;-3.210;2023-07-16T07:36:44;94250.06;;;28.68;23.95
80988;BME280;70452;39.386;-3.210;2023-07-16T07:39:15;94257.69;;;29.47;23.60
80988;BME280;70452;39.386;-3.210;2023-07-16T07:41:50;94255.31;;;29.16;23.65
80988;BME280;70452;39.386;-3.210;2023-07-16T07:44:30;94256.47;;;28.87;24.05
80988;BME280;70452;39.386;-3.210;2023-07-16T07:47:05;94261.22;;;29.83;23.07
80988;BME280;70452;39.386;-3.210;2023-07-16T07:49:37;94242.59;;;30.25;22.54
80988;BME280;70452;39.386;-3.210;2023-07-16T07:52:19;94251.22;;;29.64;22.79
80988;BME280;70452;39.386;-3.210;2023-07-16T07:55:11;94249.41;;;30.32;22.39
80988;BME280;70452;39.386;-3.210;2023-07-16T07:57:45;94244.63;;;30.21;22.53
80988;BME280;70452;39.386;-3.210;2023-07-16T08:00:32;94243.03;;;30.87;21.68
80988;BME280;70452;39.386;-3.210;2023-07-16T08:03:06;94243.16;;;30.73;21.73
80988;BME280;70452;39.386;-3.210;2023-07-16T08:05:57;94247.72;;;31.08;21.29
80988;BME280;70452;39.386;-3.210;2023-07-16T08:08:29;94246.34;;;31.31;21.00
80988;BME280;70452;39.386;-3.210;2023-07-16T08:11:10;94254.28;;;31.43;20.99
80988;BME280;70452;39.386;-3.210;2023-07-16T08:13:45;94243.34;;;31.52;20.88
80988;BME280;70452;39.386;-3.210;2023-07-16T08:16:10;94234.97;;;31.83;20.19
80988;BME280;70452;39.386;-3.210;2023-07-16T08:18:50;94241.81;;;31.86;20.34
80988;BME280;70452;39.386;-3.210;2023-07-16T08:21:45;94245.25;;;31.63;20.45
80988;BME280;70452;39.386;-3.210;2023-07-16T08:24:14;94238.00;;;31.62;20.59
80988;BME280;70452;39.386;-3.210;2023-07-16T08:26:46;94248.50;;;31.61;20.46
80988;BME280;70452;39.386;-3.210;2023-07-16T08:29:15;94234.38;;;31.65;20.71
80988;BME280;70452;39.386;-3.210;2023-07-16T08:31:49;94234.72;;;31.70;20.34
80988;BME280;70452;39.386;-3.210;2023-07-16T08:34:27;94239.03;;;31.37;20.85
80988;BME280;70452;39.386;-3.210;2023-07-16T08:36:55;94234.91;;;31.49;20.68
80988;BME280;70452;39.386;-3.210;2023-07-16T08:39:34;94235.91;;;31.73;20.62
80988;BME280;70452;39.386;-3.210;2023-07-16T08:42:34;94225.00;;;31.75;20.33
80988;BME280;70452;39.386;-3.210;2023-07-16T08:45:12;94221.78;;;31.76;20.31
80988;BME280;70452;39.386;-3.210;2023-07-16T08:48:03;94226.91;;;31.44;20.63
80988;BME280;70452;39.386;-3.210;2023-07-16T08:50:38;94227.63;;;31.58;20.39
80988;BME280;70452;39.386;-3.210;2023-07-16T08:53:19;94226.91;;;31.85;20.61
80988;BME280;70452;39.386;-3.210;2023-07-16T08:55:52;94222.06;;;32.24;20.19
80988;BME280;70452;39.386;-3.210;2023-07-16T08:58:31;94224.56;;;32.45;19.86
80988;BME280;70452;39.386;-3.210;2023-07-16T09:01:20;94221.78;;;33.00;19.36
80988;BME280;70452;39.386;-3.210;2023-07-16T09:03:48;94224.03;;;33.36;18.73
80988;BME280;70452;39.386;-3.210;2023-07-16T09:06:25;94222.13;;;33.29;18.79
80988;BME280;70452;39.386;-3.210;2023-07-16T09:09:08;94224.84;;;32.55;19.50
80988;BME280;70452;39.386;-3.210;2023-07-16T09:11:52;94219.41;;;31.71;20.33
80988;BME280;70452;39.386;-3.210;2023-07-16T09:14:24;94223.97;;;32.30;19.90
80988;BME280;70452;39.386;-3.210;2023-07-16T09:16:59;94226.59;;;32.76;19.64
80988;BME280;70452;39.386;-3.210;2023-07-16T09:19:39;94230.84;;;33.15;18.88
80988;BME280;70452;39.386;-3.210;2023-07-16T09:22:08;94224.66;;;33.23;18.83
80988;BME280;70452;39.386;-3.210;2023-07-16T09:24:46;94223.41;;;33.24;18.75
80988;BME280;70452;39.386;-3.210;2023-07-16T09:27:19;94224.75;;;33.16;18.96
80988;BME280;70452;39.386;-3.210;2023-07-16T09:30:18;94223.91;;;33.43;18.75
80988;BME280;70452;39.386;-3.210;2023-07-16T09:32:46;94221.47;;;33.65;18.55
80988;BME280;70452;39.386;-3.210;2023-07-16T09:35:17;94208.38;;;33.31;18.62
80988;BME280;70452;39.386;-3.210;2023-07-16T09:37:48;94214.72;;;33.59;18.23
80988;BME280;70452;39.386;-3.210;2023-07-16T09:40:23;94221.72;;;32.76;18.75
80988;BME280;70452;39.386;-3.210;2023-07-16T09:42:57;94221.50;;;33.18;18.59
80988;BME280;70452;39.386;-3.210;2023-07-16T09:45:29;94229.81;;;32.74;18.99
80988;BME280;70452;39.386;-3.210;2023-07-16T09:48:10;94225.03;;;33.45;18.08
80988;BME280;70452;39.386;-3.210;2023-07-16T09:50:49;94222.03;;;34.00;16.84
80988;BME280;70452;39.386;-3.210;2023-07-16T09:53:23;94215.78;;;34.09;16.78
80988;BME280;70452;39.386;-3.210;2023-07-16T09:56:02;94219.28;;;33.96;17.00
80988;BME280;70452;39.386;-3.210;2023-07-16T09:58:41;94222.69;;;34.28;17.28
80988;BME280;70452;39.386;-3.210;2023-07-16T10:01:12;94217.78;;;34.68;16.83
80988;BME280;70452;39.386;-3.210;2023-07-16T10:03:50;94222.41;;;34.22;16.70
80988;BME280;70452;39.386;-3.210;2023-07-16T10:06:26;94220.56;;;34.52;16.56
80988;BME280;70452;39.386;-3.210;2023-07-16T10:09:04;94221.34;;;34.72;16.40
80988;BME280;70452;39.386;-3.210;2023-07-16T10:11:37;94229.34;;;34.17;16.83
80988;BME280;70452;39.386;-3.210;2023-07-16T10:14:08;94223.88;;;34.67;16.52
80988;BME280;70452;39.386;-3.210;2023-07-16T10:16:46;94217.06;;;35.01;15.86
80988;BME280;70452;39.386;-3.210;2023-07-16T10:19:26;94213.91;;;33.15;17.80
80988;BME280;70452;39.386;-3.210;2023-07-16T10:22:13;94216.97;;;34.11;17.19
80988;BME280;70452;39.386;-3.210;2023-07-16T10:25:01;94213.50;;;34.60;17.17
80988;BME280;70452;39.386;-3.210;2023-07-16T10:27:32;94213.00;;;34.65;16.79
80988;BME280;70452;39.386;-3.210;2023-07-16T10:30:27;94214.72;;;34.43;17.03
80988;BME280;70452;39.386;-3.210;2023-07-16T10:33:11;94208.81;;;34.53;16.82
80988;BME280;70452;39.386;-3.210;2023-07-16T10:35:50;94207.41;;;34.98;16.56
80988;BME280;70452;39.386;-3.210;2023-07-16T10:38:24;94197.34;;;34.97;17.06
80988;BME280;70452;39.386;-3.210;2023-07-16T10:41:07;94201.66;;;35.18;16.58
80988;BME280;70452;39.386;-3.210;2023-07-16T10:44:03;94204.88;;;35.37;16.67
80988;BME280;70452;39.386;-3.210;2023-07-16T10:46:38;94206.63;;;35.30;16.44
80988;BME280;70452;39.386;-3.210;2023-07-16T10:49:12;94198.13;;;34.98;16.73
80988;BME280;70452;39.386;-3.210;2023-07-16T10:52:01;94199.34;;;35.46;16.22
80988;BME280;70452;39.386;-3.210;2023-07-16T10:54:33;94207.31;;;35.18;17.03
80988;BME280;70452;39.386;-3.210;2023-07-16T10:57:11;94200.97;;;35.30;17.09
80988;BME280;70452;39.386;-3.210;2023-07-16T10:59:56;94206.88;;;35.53;17.24
80988;BME280;70452;39.386;-3.210;2023-07-16T11:02:28;94202.06;;;35.66;16.80
80988;BME280;70452;39.386;-3.210;2023-07-16T11:04:58;94192.75;;;35.65;16.50
80988;BME280;70452;39.386;-3.210;2023-07-16T11:07:30;94187.88;;;35.82;16.57
80988;BME280;70452;39.386;-3.210;2023-07-16T11:10:07;94193.09;;;35.84;16.27
80988;BME280;70452;39.386;-3.210;2023-07-16T11:12:39;94190.38;;;34.09;18.47
80988;BME280;70452;39.386;-3.210;2023-07-16T11:15:10;94185.41;;;34.53;18.00
80988;BME280;70452;39.386;-3.210;2023-07-16T11:17:42;94183.19;;;34.44;18.72
80988;BME280;70452;39.386;-3.210;2023-07-16T11:20:13;94173.44;;;34.45;18.76
80988;BME280;70452;39.386;-3.210;2023-07-16T11:23:10;94181.31;;;34.74;17.72
80988;BME280;70452;39.386;-3.210;2023-07-16T11:25:49;94180.69;;;35.16;17.14
80988;BME280;70452;39.386;-3.210;2023-07-16T11:28:24;94173.88;;;35.46;16.69
80988;BME280;70452;39.386;-3.210;2023-07-16T11:31:38;94171.91;;;35.59;17.06
80988;BME280;70452;39.386;-3.210;2023-07-16T11:34:19;94173.84;;;35.62;17.35
80988;BME280;70452;39.386;-3.210;2023-07-16T11:36:55;94173.88;;;35.46;17.53
80988;BME280;70452;39.386;-3.210;2023-07-16T11:39:45;94161.38;;;35.89;16.99
80988;BME280;70452;39.386;-3.210;2023-07-16T11:42:40;94159.84;;;36.01;16.32
80988;BME280;70452;39.386;-3.210;2023-07-16T11:45:20;94163.25;;;36.09;15.65
80988;BME280;70452;39.386;-3.210;2023-07-16T11:47:57;94157.44;;;36.41;16.29
80988;BME280;70452;39.386;-3.210;2023-07-16T11:50:33;94156.75;;;36.37;15.31
80988;BME280;70452;39.386;-3.210;2023-07-16T11:53:01;94153.25;;;36.46;15.79
80988;BME280;70452;39.386;-3.210;2023-07-16T11:55:55;94158.00;;;36.49;16.08
80988;BME280;70452;39.386;-3.210;2023-07-16T11:58:29;94153.91;;;36.25;15.43
80988;BME280;70452;39.386;-3.210;2023-07-16T12:01:07;94153.00;;;36.28;15.62
80988;BME280;70452;39.386;-3.210;2023-07-16T12:04:04;94154.25;;;36.27;15.02
80988;BME280;70452;39.386;-3.210;2023-07-16T12:06:44;94150.50;;;36.30;15.47
80988;BME280;70452;39.386;-3.210;2023-07-16T12:09:19;94145.84;;;36.36;15.69
80988;BME280;70452;39.386;-3.210;2023-07-16T12:11:59;94140.75;;;36.31;15.60
80988;BME280;70452;39.386;-3.210;2023-07-16T12:14:40;94130.56;;;36.33;16.04
80988;BME280;70452;39.386;-3.210;2023-07-16T12:17:35;94138.75;;;36.70;14.72
80988;BME280;70452;39.386;-3.210;2023-07-16T12:20:11;94142.25;;;36.87;14.42
80988;BME280;70452;39.386;-3.210;2023-07-16T12:22:42;94138.06;;;36.91;14.03
80988;BME280;70452;39.386;-3.210;2023-07-16T12:25:27;94143.84;;;37.01;13.90
80988;BME280;70452;39.386;-3.210;2023-07-16T12:28:03;94135.41;;;37.10;14.36
80988;BME280;70452;39.386;-3.210;2023-07-16T12:30:46;94136.00;;;37.18;14.29
80988;BME280;70452;39.386;-3.210;2023-07-16T12:33:32;94130.13;;;36.73;14.15
80988;BME280;70452;39.386;-3.210;2023-07-16T12:36:04;94133.66;;;36.77;14.41
80988;BME280;70452;39.386;-3.210;2023-07-16T12:38:36;94132.63;;;36.71;14.08
80988;BME280;70452;39.386;-3.210;2023-07-16T12:41:04;94140.91;;;36.91;13.50
80988;BME280;70452;39.386;-3.210;2023-07-16T12:43:34;94121.59;;;36.48;14.25
80988;BME280;70452;39.386;-3.210;2023-07-16T12:46:07;94123.84;;;36.27;14.63
80988;BME280;70452;39.386;-3.210;2023-07-16T12:48:40;94117.84;;;36.64;13.95
80988;BME280;70452;39.386;-3.210;2023-07-16T12:51:11;94117.16;;;36.59;13.94
80988;BME280;70452;39.386;-3.210;2023-07-16T12:53:41;94113.88;;;36.61;14.17
80988;BME280;70452;39.386;-3.210;2023-07-16T12:56:15;94112.66;;;37.35;14.01
80988;BME280;70452;39.386;-3.210;2023-07-16T12:58:44;94108.06;;;37.03;13.88
80988;BME280;70452;39.386;-3.210;2023-07-16T13:01:27;94101.16;;;37.39;13.66
80988;BME280;70452;39.386;-3.210;2023-07-16T13:04:05;94108.38;;;37.53;12.70
80988;BME280;70452;39.386;-3.210;2023-07-16T13:06:39;94099.38;;;37.89;12.31
80988;BME280;70452;39.386;-3.210;2023-07-16T13:09:07;94101.63;;;37.95;11.99
80988;BME280;70452;39.386;-3.210;2023-07-16T13:11:42;94104.88;;;38.37;11.83
80988;BME280;70452;39.386;-3.210;2023-07-16T13:14:23;94107.22;;;37.85;11.96
80988;BME280;70452;39.386;-3.210;2023-07-16T13:16:58;94098.34;;;37.61;12.86
80988;BME280;70452;39.386;-3.210;2023-07-16T13:19:33;94094.66;;;37.74;12.95
80988;BME280;70452;39.386;-3.210;2023-07-16T13:22:14;94105.78;;;37.46;12.72
80988;BME280;70452;39.386;-3.210;2023-07-16T13:24:49;94089.91;;;37.93;12.54
80988;BME280;70452;39.386;-3.210;2023-07-16T13:27:26;94087.00;;;38.05;12.08
80988;BME280;70452;39.386;-3.210;2023-07-16T13:30:00;94093.50;;;38.37;11.86
80988;BME280;70452;39.386;-3.210;2023-07-16T13:32:39;94082.13;;;38.78;12.01
80988;BME280;70452;39.386;-3.210;2023-07-16T13:35:08;94087.97;;;38.65;11.71
80988;BME280;70452;39.386;-3.210;2023-07-16T13:37:43;94087.47;;;38.35;12.22
80988;BME280;70452;39.386;-3.210;2023-07-16T13:40:16;94084.59;;;38.26;12.35
80988;BME280;70452;39.386;-3.210;2023-07-16T13:42:48;94077.81;;;38.01;12.24
80988;BME280;70452;39.386;-3.210;2023-07-16T13:45:17;94070.38;;;37.38;12.58
80988;BME280;70452;39.386;-3.210;2023-07-16T13:47:51;94077.44;;;37.90;12.63
80988;BME280;70452;39.386;-3.210;2023-07-16T13:50:44;94073.94;;;38.39;11.57
80988;BME280;70452;39.386;-3.210;2023-07-16T13:53:12;94071.00;;;38.61;11.55
80988;BME280;70452;39.386;-3.210;2023-07-16T13:55:47;94060.25;;;38.25;11.74
80988;BME280;70452;39.386;-3.210;2023-07-16T13:58:19;94061.50;;;38.55;11.58
80988;BME280;70452;39.386;-3.210;2023-07-16T14:00:56;94061.66;;;38.52;11.75
80988;BME280;70452;39.386;-3.210;2023-07-16T14:03:30;94068.50;;;37.79;12.29
80988;BME280;70452;39.386;-3.210;2023-07-16T14:06:17;94073.59;;;37.84;12.06
80988;BME280;70452;39.386;-3.210;2023-07-16T14:08:54;94065.78;;;37.97;12.32
80988;BME280;70452;39.386;-3.210;2023-07-16T14:11:35;94061.66;;;38.52;11.42
80988;BME280;70452;39.386;-3.210;2023-07-16T14:14:18;94060.38;;;37.90;11.72
80988;BME280;70452;39.386;-3.210;2023-07-16T14:16:51;94065.34;;;38.30;11.98